Partenope — ICCZ — position and weather

sailwx.info

Track history (hours):
 
Tides and Currents Weather Stations Pressure Air Temp Water Temp Dewpoint Dewpoint Depression Visibility Wind Speed Wind Dir Waves Ship Positions

Partenope

Last reported at 2014-Jul-25 07:33 UTC. Time now 2014-Jul-25 09:04 UTC.
Position N 40°43' E 014°17'.

Length 186 m; draft 6.2 m.

Type: Passenger vessel. MMSI: 247060500.

Date/timePositionNaut miles runAvg speedWind from/ knotsBaromVisibWave heightAir tempDewpointWater temp
2014-Jul-25 07:33N 40°43' E 014°17'24 0.7
2014-Jul-23 21:24N 40°19' E 014°26'1720.0
2014-Jul-23 20:33N 40°35' E 014°17'15 1.2
2014-Jul-23 08:15N 40°50' E 014°16'1318.2
2014-Jul-23 07:33N 40°37' E 014°17'12 0.3
2014-Jul-21 21:16N 40°26' E 014°21'1419.8
2014-Jul-21 20:33N 40°40' E 014°16'520.8
2014-Jul-21 20:18N 40°45' E 014°17'5 0.3
2014-Jul-21 05:31N 40°50' E 014°16'2020.0
2014-Jul-21 04:30N 40°30' E 014°19'1920.4
2014-Jul-21 03:34N 40°12' E 014°30'2120.5
2014-Jul-21 02:32N 39°53' E 014°41'67 2.7
2014-Jul-20 01:28N 38°54' E 015°19'8320.3
2014-Jul-19 21:22N 40°08' E 014°32'2420.4
2014-Jul-19 20:12N 40°30' E 014°19'1320.4
2014-Jul-19 19:33N 40°43' E 014°17'7 7.2
2014-Jul-19 18:33N 40°50' E 014°16'0 0.0
2014-Jul-19 17:33N 40°50' E 014°16'0 0.0
2014-Jul-19 16:32N 40°50' E 014°16'0 0.0
2014-Jul-19 15:33N 40°50' E 014°16'0 0.0
2014-Jul-19 14:33N 40°50' E 014°16'0 0.0
2014-Jul-19 13:09N 40°50' E 014°16'0 0.0
2014-Jul-19 12:33N 40°50' E 014°16'0 0.0
2014-Jul-19 11:33N 40°50' E 014°16'0 0.0
2014-Jul-19 10:32N 40°50' E 014°16'0 0.0
2014-Jul-19 09:33N 40°50' E 014°16'1 0.2
2014-Jul-19 05:11N 40°50' E 014°17'1219.9
2014-Jul-19 04:34N 40°38' E 014°17'2120.5
2014-Jul-19 03:33N 40°18' E 014°25'11 0.4
2014-Jul-17 22:07N 40°09' E 014°32'1219.8
2014-Jul-17 21:32N 40°19' E 014°25'1919.9
2014-Jul-17 20:33N 40°37' E 014°16'1312.7
2014-Jul-17 19:32N 40°50' E 014°16'0 0.0
2014-Jul-17 18:11N 40°50' E 014°16'0 0.0
2014-Jul-17 17:25N 40°50' E 014°16'0 0.0
2014-Jul-17 08:30N 40°50' E 014°16'1616.9
2014-Jul-17 07:33N 40°34' E 014°17'2220.2
2014-Jul-17 06:26N 40°14' E 014°30'12 0.3
2014-Jul-15 21:09N 40°24' E 014°23'1220.1
2014-Jul-15 20:33N 40°35' E 014°17'15 1.2
2014-Jul-15 08:06N 40°50' E 014°16'1018.1
2014-Jul-15 07:34N 40°40' E 014°17'  
Track history (hours):
 
Tides and Currents Weather Stations Pressure Air Temp Water Temp Dewpoint Dewpoint Depression Visibility Wind Speed Wind Dir Waves Ship Positions

Partenope

Last reported at 2014-Jul-25 07:33 UTC. Time now 2014-Jul-25 09:04 UTC.
Position N 40°43' E 014°17'.

Length 186 m; draft 6.2 m.

Type: Passenger vessel. MMSI: 247060500.

Date/timePositionNaut miles runAvg speedWind from/ knotsBaromVisibWave heightAir tempDewpointWater temp
2014-Jul-25 07:33N 40°43' E 014°17'24 0.7
2014-Jul-23 21:24N 40°19' E 014°26'1720.0
2014-Jul-23 20:33N 40°35' E 014°17'15 1.2
2014-Jul-23 08:15N 40°50' E 014°16'1318.2
2014-Jul-23 07:33N 40°37' E 014°17'12 0.3
2014-Jul-21 21:16N 40°26' E 014°21'1419.8
2014-Jul-21 20:33N 40°40' E 014°16'520.8
2014-Jul-21 20:18N 40°45' E 014°17'5 0.3
2014-Jul-21 05:31N 40°50' E 014°16'2020.0
2014-Jul-21 04:30N 40°30' E 014°19'1920.4
2014-Jul-21 03:34N 40°12' E 014°30'2120.5
2014-Jul-21 02:32N 39°53' E 014°41'67 2.7
2014-Jul-20 01:28N 38°54' E 015°19'8320.3
2014-Jul-19 21:22N 40°08' E 014°32'2420.4
2014-Jul-19 20:12N 40°30' E 014°19'1320.4
2014-Jul-19 19:33N 40°43' E 014°17'7 7.2
2014-Jul-19 18:33N 40°50' E 014°16'0 0.0
2014-Jul-19 17:33N 40°50' E 014°16'0 0.0
2014-Jul-19 16:32N 40°50' E 014°16'0 0.0
2014-Jul-19 15:33N 40°50' E 014°16'0 0.0
2014-Jul-19 14:33N 40°50' E 014°16'0 0.0
2014-Jul-19 13:09N 40°50' E 014°16'0 0.0
2014-Jul-19 12:33N 40°50' E 014°16'0 0.0
2014-Jul-19 11:33N 40°50' E 014°16'0 0.0
2014-Jul-19 10:32N 40°50' E 014°16'0 0.0
2014-Jul-19 09:33N 40°50' E 014°16'1 0.2
2014-Jul-19 05:11N 40°50' E 014°17'1219.9
2014-Jul-19 04:34N 40°38' E 014°17'2120.5
2014-Jul-19 03:33N 40°18' E 014°25'11 0.4
2014-Jul-17 22:07N 40°09' E 014°32'1219.8
2014-Jul-17 21:32N 40°19' E 014°25'1919.9
2014-Jul-17 20:33N 40°37' E 014°16'1312.7
2014-Jul-17 19:32N 40°50' E 014°16'0 0.0
2014-Jul-17 18:11N 40°50' E 014°16'0 0.0
2014-Jul-17 17:25N 40°50' E 014°16'0 0.0
2014-Jul-17 08:30N 40°50' E 014°16'1616.9
2014-Jul-17 07:33N 40°34' E 014°17'2220.2
2014-Jul-17 06:26N 40°14' E 014°30'12 0.3
2014-Jul-15 21:09N 40°24' E 014°23'1220.1
2014-Jul-15 20:33N 40°35' E 014°17'15 1.2
2014-Jul-15 08:06N 40°50' E 014°16'1018.1
2014-Jul-15 07:34N 40°40' E 014°17'  

Dump ship's entire track history